ADDS METAR Data INFO
IDs: Format: Raw Decoded Include TAF

Data at: 0102 UTC 22 Oct 2017

KCMX 220053Z AUTO 17005KT 10SM BKN045 BKN060 20/13 A2980 RMK AO2 SLP087 T02000133 $
KCMX 212353Z AUTO 18004KT 10SM OVC048 20/13 A2978 RMK AO2 SLP082 60003 T02000133 10217 20172 53007 $
KCMX 212253Z AUTO 09004KT 10SM BKN047 18/13 A2976 RMK AO2 SLP077 T01780128 $
KCMX 212153Z AUTO 10006KT 10SM OVC042 19/13 A2976 RMK AO2 LTG DSNT N AND NE SLP075 T01890133 $
KCMX 212145Z AUTO 10007KT 10SM OVC042 18/14 A2976 RMK AO2 LTG DSNT N AND NE T01830139 $
KCMX 212130Z AUTO 11004KT 10SM VCTS OVC040 19/14 A2977 RMK AO2 LTG DSNT W-NE T01890139 $
KCMX 212115Z AUTO 13005KT 10SM BKN040 OVC090 18/14 A2977 RMK AO2 LTG DSNT W-NE T01830139 $
KCMX 212053Z AUTO 12006KT 10SM VCTS FEW070 OVC095 18/14 A2976 RMK AO2 LTG DSNT W RAE42 SLP075 P0002 60003 T01830139 58008 $
KCMX 212046Z AUTO 12004KT 10SM VCTS FEW070 OVC095 18/13 A2976 RMK AO2 LTG DSNT W RAE42 P0002 T01830133 $
KCMX 211953Z AUTO 15010KT 6SM -RA OVC100 19/13 A2977 RMK AO2 RAB02 SLP079 P0001 T01940133 $
KCMX 211853Z AUTO 17009KT 10SM SCT042 SCT120 22/11 A2978 RMK AO2 SLP082 T02170111 $
KCMX 211753Z AUTO 16011KT 10SM CLR 21/10 A2978 RMK AO2 SLP084 T02060100 10217 20167 58010 $
KCMX 211653Z AUTO 19012KT 10SM CLR 22/09 A2980 RMK AO2 SLP088 T02170094 $
KCMX 211553Z AUTO 16011G15KT 10SM SCT065 20/09 A2982 RMK AO2 SLP094 T02000089 $
KCMX 211453Z AUTO 18010KT 10SM CLR 18/08 A2982 RMK AO2 SLP095 T01780078 53000 $
KCMX 211353Z AUTO 20011KT 10SM CLR 17/07 A2982 RMK AO2 SLP094 T01720072 $
KCMX 211253Z AUTO 19015G21KT 10SM CLR 17/07 A2981 RMK AO2 SLP093 T01670072 $
KCMX 211153Z AUTO 18010KT 10SM CLR 17/07 A2982 RMK AO2 SLP093 T01670067 10172 20161 56005 $
KCMX 211053Z AUTO 17006KT 10SM CLR 17/07 A2982 RMK AO2 SLP094 T01670067
KCMX 210953Z AUTO 18004KT 10SM CLR 16/06 A2982 RMK AO2 SLP095 T01610061
KCMX 210853Z AUTO 17004KT 10SM CLR 17/06 A2983 RMK AO2 SLP097 T01670061 51000
KCMX 210753Z AUTO 18006KT 10SM SCT120 17/06 A2983 RMK AO2 SLP096 T01670061
KCMX 210653Z AUTO 20006KT 10SM CLR 17/06 A2983 RMK AO2 SLP098 T01670061
KCMX 210553Z AUTO 19005KT 10SM CLR 17/06 A2983 RMK AO2 SLP098 T01670061 10217 20161 51004
KCMX 210453Z AUTO 19009KT 10SM CLR 17/06 A2983 RMK AO2 SLP099 T01720061 402720094
KCMX 210353Z AUTO 19009KT 10SM CLR 18/06 A2983 RMK AO2 SLP098 T01830061
KCMX 210253Z AUTO 18009KT 10SM CLR 18/06 A2982 RMK AO2 SLP096 T01830056 53002
KCMX 210153Z AUTO 18007KT 10SM CLR 19/04 A2981 RMK AO2 SLP095 T01940044
KCMX 210053Z AUTO 18006KT 10SM CLR 21/03 A2981 RMK AO2 SLP094 T02060033
KCMX 202353Z AUTO 20009KT 10SM CLR 22/03 A2981 RMK AO2 SLP095 T02170028 10272 20217 53002
KCMX 202253Z AUTO 21007G19KT 10SM CLR 24/01 A2981 RMK AO2 SLP092 T02440011
KCMX 202153Z AUTO 20009KT 10SM CLR 26/01 A2980 RMK AO2 SLP090 T02610006
KCMX 202053Z AUTO 19011KT 10SM CLR 27/04 A2981 RMK AO2 SLP091 T02720039 56020
KCMX 201953Z AUTO 18012KT 10SM CLR 27/05 A2982 RMK AO2 SLP095 T02720050
KCMX 201853Z AUTO 16008KT 10SM CLR 25/09 A2984 RMK AO2 SLP103 T02500089
KCMX 201753Z AUTO 17012KT 10SM CLR 22/09 A2987 RMK AO2 SLP113 T02220089 10222 20100 58015
KCMX 201653Z AUTO 15007KT 10SM CLR 19/08 A2989 RMK AO2 SLP124 T01940083
KCMX 201553Z AUTO 16005KT 10SM CLR 17/08 A2990 RMK AO2 SLP127 T01720078
KCMX 201453Z AUTO 18008KT 10SM CLR 15/07 A2991 RMK AO2 SLP131 T01500072 58002
KCMX 201353Z AUTO 19006KT 10SM CLR 13/06 A2992 RMK AO2 SLP134 T01330061